createdAt,value
2018-06-10T00:02:16.695Z,53.74
2018-06-10T00:04:42.674Z,53.75
2018-06-10T00:07:08.664Z,53.74
2018-06-10T00:09:34.657Z,53.71
2018-06-10T00:12:00.642Z,53.72
2018-06-10T00:14:26.632Z,53.73
2018-06-10T00:16:52.615Z,53.70
2018-06-10T00:19:18.596Z,53.70
2018-06-10T00:21:44.582Z,53.70
2018-06-10T00:24:10.572Z,53.70
2018-06-10T00:26:36.549Z,53.69
2018-06-10T00:29:02.534Z,53.69
2018-06-10T00:31:28.522Z,53.66
2018-06-10T00:33:54.499Z,53.66
2018-06-10T00:36:20.478Z,53.64
2018-06-10T00:38:46.459Z,53.63
2018-06-10T00:41:12.444Z,53.63
2018-06-10T00:43:38.422Z,53.63
2018-06-10T00:46:04.436Z,53.60
2018-06-10T00:48:30.381Z,53.59
2018-06-10T00:50:56.362Z,53.58
2018-06-10T00:53:22.350Z,53.59
2018-06-10T00:55:48.322Z,53.58
2018-06-10T00:58:14.308Z,53.56
2018-06-10T01:00:40.283Z,53.55
2018-06-10T01:03:06.267Z,53.55
2018-06-10T01:05:32.258Z,53.54
2018-06-10T01:07:58.245Z,53.53
2018-06-10T01:10:24.233Z,53.54
2018-06-10T01:12:50.214Z,53.53
2018-06-10T01:15:16.193Z,53.52
2018-06-10T01:17:42.231Z,53.51
2018-06-10T01:20:08.209Z,53.50
2018-06-10T01:22:34.186Z,53.50
2018-06-10T01:25:00.199Z,53.50
2018-06-10T01:27:26.187Z,53.48
2018-06-10T01:29:52.183Z,53.48
2018-06-10T01:32:18.177Z,53.48
2018-06-10T01:34:44.160Z,53.48
2018-06-10T01:37:10.139Z,53.45
2018-06-10T01:39:36.125Z,53.44
2018-06-10T01:42:02.108Z,53.46
2018-06-10T01:44:28.089Z,53.44
2018-06-10T01:46:54.077Z,53.45
2018-06-10T01:49:20.073Z,53.45
2018-06-10T01:51:46.050Z,53.44
2018-06-10T01:54:12.047Z,53.43
2018-06-10T01:56:38.028Z,53.42
2018-06-10T01:59:04.024Z,53.45
2018-06-10T02:01:30.018Z,53.41
2018-06-10T02:03:56.008Z,53.41
2018-06-10T02:06:22.005Z,53.41
2018-06-10T02:08:47.984Z,53.41
2018-06-10T02:11:13.963Z,53.40
2018-06-10T02:13:39.957Z,53.41
2018-06-10T02:16:05.962Z,53.38
2018-06-10T02:18:31.947Z,53.37
2018-06-10T02:20:57.931Z,53.35
2018-06-10T02:23:23.919Z,53.37
2018-06-10T02:25:49.898Z,53.35
2018-06-10T02:28:15.892Z,53.34
2018-06-10T02:30:41.877Z,53.36
2018-06-10T02:33:07.856Z,53.37
2018-06-10T02:35:33.867Z,53.34
2018-06-10T02:37:59.841Z,53.36
2018-06-10T02:40:25.822Z,53.31
2018-06-10T02:42:51.803Z,53.34
2018-06-10T02:45:17.786Z,53.33
2018-06-10T02:47:43.772Z,53.33
2018-06-10T02:50:09.754Z,53.31
2018-06-10T02:52:35.730Z,53.31
2018-06-10T02:55:01.726Z,53.32
2018-06-10T02:57:27.707Z,53.29
2018-06-10T02:59:53.696Z,53.27
2018-06-10T03:02:19.679Z,53.30
2018-06-10T03:04:45.657Z,53.29
2018-06-10T03:07:11.646Z,53.28
2018-06-10T03:09:37.620Z,53.26
2018-06-10T03:12:03.596Z,53.28
2018-06-10T03:14:29.575Z,53.27
2018-06-10T03:16:55.555Z,53.27
2018-06-10T03:19:21.542Z,53.25
2018-06-10T03:21:47.526Z,53.27
2018-06-10T03:24:13.511Z,53.25
2018-06-10T03:26:39.559Z,53.26
2018-06-10T03:29:05.481Z,53.23
2018-06-10T03:31:31.458Z,53.25
2018-06-10T03:33:57.453Z,53.23
2018-06-10T03:36:23.437Z,53.22
2018-06-10T03:38:49.416Z,53.25
2018-06-10T03:41:15.401Z,53.22
2018-06-10T03:43:41.386Z,53.22
2018-06-10T03:46:07.412Z,53.21
2018-06-10T03:48:33.386Z,53.20
2018-06-10T03:50:59.368Z,53.19
2018-06-10T03:53:25.353Z,53.19
2018-06-10T03:55:51.357Z,53.18
2018-06-10T03:58:17.337Z,53.19
2018-06-10T04:00:43.316Z,53.19
2018-06-10T04:03:09.339Z,53.17
2018-06-10T04:05:35.316Z,53.19
2018-06-10T04:08:01.293Z,53.16
2018-06-10T04:10:27.269Z,53.19
2018-06-10T04:12:53.263Z,53.15
2018-06-10T04:15:19.250Z,53.16
2018-06-10T04:17:45.290Z,53.15
2018-06-10T04:20:11.271Z,53.16
2018-06-10T04:22:37.262Z,53.15
2018-06-10T04:25:03.240Z,53.15
2018-06-10T04:27:29.227Z,53.14
2018-06-10T04:29:55.225Z,53.14
2018-06-10T04:32:21.212Z,53.14
2018-06-10T04:34:47.197Z,53.14
2018-06-10T04:37:13.192Z,53.12
2018-06-10T04:39:39.184Z,53.11
2018-06-10T04:42:05.168Z,53.12
2018-06-10T04:44:31.155Z,53.13
2018-06-10T04:46:57.148Z,53.11
2018-06-10T04:49:23.120Z,53.10
2018-06-10T04:51:49.115Z,53.12
2018-06-10T04:54:15.128Z,53.09
2018-06-10T04:56:41.146Z,53.12
2018-06-10T04:59:07.096Z,53.12
2018-06-10T05:01:33.082Z,53.11
2018-06-10T05:03:59.065Z,53.11
2018-06-10T05:06:25.055Z,53.09
2018-06-10T05:08:51.027Z,53.10
2018-06-10T05:11:17.021Z,53.08
2018-06-10T05:13:42.997Z,53.09
2018-06-10T05:16:08.984Z,53.10
2018-06-10T05:18:34.971Z,53.08
2018-06-10T05:21:00.959Z,53.10
2018-06-10T05:23:26.941Z,53.07
2018-06-10T05:25:52.938Z,53.07
2018-06-10T05:28:18.958Z,53.07
2018-06-10T05:30:44.950Z,53.05
2018-06-10T05:33:10.988Z,53.02
2018-06-10T05:35:36.966Z,53.27
2018-06-10T05:38:02.950Z,53.18
2018-06-10T05:40:28.938Z,53.16
2018-06-10T05:42:54.934Z,53.00
2018-06-10T05:45:20.909Z,53.18
2018-06-10T05:47:46.902Z,53.14
2018-06-10T05:50:12.885Z,53.20
2018-06-10T05:52:38.872Z,53.24
2018-06-10T05:55:04.853Z,53.19
2018-06-10T05:57:30.857Z,53.27
2018-06-10T05:59:56.830Z,53.63
2018-06-10T06:02:22.819Z,53.53
2018-06-10T06:04:48.904Z,53.66
2018-06-10T06:07:14.896Z,53.55
2018-06-10T06:09:40.881Z,53.63
2018-06-10T06:12:06.866Z,53.78
2018-06-10T06:14:32.846Z,53.80
2018-06-10T06:16:58.849Z,53.67
2018-06-10T06:19:24.827Z,53.78
2018-06-10T06:21:50.880Z,53.80
2018-06-10T06:24:16.861Z,53.76
2018-06-10T06:26:42.842Z,53.78
2018-06-10T06:29:08.821Z,53.76
2018-06-10T06:31:34.807Z,53.69
2018-06-10T06:34:00.781Z,53.51
2018-06-10T06:36:26.757Z,53.62
2018-06-10T06:38:52.873Z,53.61
2018-06-10T06:41:18.862Z,53.59
2018-06-10T06:43:44.861Z,53.62
2018-06-10T06:46:10.852Z,53.58
2018-06-10T06:48:36.883Z,53.59
2018-06-10T06:51:02.868Z,53.61
2018-06-10T06:53:28.863Z,53.66
2018-06-10T06:55:54.841Z,53.69
2018-06-10T06:58:20.834Z,53.88
2018-06-10T07:00:46.827Z,53.74
2018-06-10T07:03:12.817Z,54.04
2018-06-10T07:05:38.833Z,54.03
2018-06-10T07:08:04.817Z,54.00
2018-06-10T07:10:30.832Z,54.09
2018-06-10T07:12:56.937Z,53.82
2018-06-10T07:15:22.980Z,53.97
2018-06-10T07:17:48.988Z,53.99
2018-06-10T07:20:14.988Z,54.11
2018-06-10T07:22:41.002Z,54.24
2018-06-10T07:25:07.013Z,54.12
2018-06-10T07:27:33.073Z,54.23
2018-06-10T07:29:59.088Z,54.25
2018-06-10T07:32:25.098Z,54.17
2018-06-10T07:34:51.107Z,54.16
2018-06-10T07:37:17.126Z,54.32
2018-06-10T07:39:43.128Z,54.43
2018-06-10T07:42:09.146Z,54.36
2018-06-10T07:44:35.166Z,54.49
2018-06-10T07:47:01.150Z,54.50
2018-06-10T07:49:27.132Z,54.36
2018-06-10T07:51:53.196Z,54.13
2018-06-10T07:54:19.183Z,54.09
2018-06-10T07:56:45.203Z,54.12
2018-06-10T07:59:11.229Z,54.10
2018-06-10T08:01:37.222Z,54.02
2018-06-10T08:04:03.232Z,54.19
2018-06-10T08:06:29.337Z,54.22
2018-06-10T08:08:55.348Z,54.09
2018-06-10T08:11:21.360Z,54.13
2018-06-10T08:13:47.341Z,54.13
2018-06-10T08:16:13.360Z,54.42
2018-06-10T08:18:39.395Z,54.43
2018-06-10T08:21:05.387Z,54.32
2018-06-10T08:23:31.398Z,54.21
2018-06-10T08:25:57.384Z,54.09
2018-06-10T08:28:23.395Z,54.30
2018-06-10T08:30:49.412Z,54.08
2018-06-10T08:33:15.397Z,54.19
2018-06-10T08:35:41.380Z,54.17
2018-06-10T08:38:07.366Z,53.99
2018-06-10T08:40:33.386Z,53.94
2018-06-10T08:42:59.367Z,53.97
2018-06-10T08:45:25.375Z,54.01
2018-06-10T08:47:51.436Z,53.89
2018-06-10T08:50:17.431Z,54.03
2018-06-10T08:52:43.421Z,53.76
2018-06-10T08:55:09.439Z,53.78
2018-06-10T08:57:35.518Z,53.88
2018-06-10T09:00:01.623Z,54.13
2018-06-10T09:02:27.613Z,53.83
2018-06-10T09:04:53.671Z,53.79
2018-06-10T09:07:19.653Z,54.18
2018-06-10T09:09:45.661Z,53.76
2018-06-10T09:12:11.682Z,53.76
2018-06-10T09:14:37.695Z,53.97
2018-06-10T09:17:03.680Z,54.02
2018-06-10T09:19:29.690Z,54.08
2018-06-10T09:21:55.688Z,54.13
2018-06-10T09:24:21.708Z,53.87
2018-06-10T09:26:47.753Z,54.06
2018-06-10T09:29:13.729Z,54.02
2018-06-10T09:31:39.739Z,53.94
2018-06-10T09:34:05.750Z,53.80
2018-06-10T09:36:31.736Z,53.70
2018-06-10T09:38:57.749Z,53.61
2018-06-10T09:41:23.760Z,53.64
2018-06-10T09:43:49.823Z,53.70
2018-06-10T09:46:15.808Z,53.59
2018-06-10T09:48:41.858Z,53.62
2018-06-10T09:51:07.841Z,53.63
2018-06-10T09:53:33.854Z,53.72
2018-06-10T09:55:59.841Z,53.75
2018-06-10T09:58:25.860Z,53.79
2018-06-10T10:00:51.908Z,53.79
2018-06-10T10:03:17.948Z,53.80
2018-06-10T10:05:43.955Z,53.76
2018-06-10T10:08:09.967Z,53.82
2018-06-10T10:10:35.959Z,53.79
2018-06-10T10:13:01.975Z,53.90
2018-06-10T10:15:27.956Z,53.99
2018-06-10T10:17:53.945Z,53.89
2018-06-10T10:20:19.968Z,53.83
2018-06-10T10:22:45.982Z,53.73
2018-06-10T10:25:11.978Z,53.73
2018-06-10T10:27:37.962Z,53.70
2018-06-10T10:30:03.999Z,53.74
2018-06-10T10:32:30.084Z,53.69
2018-06-10T10:34:56.132Z,53.69
2018-06-10T10:37:22.197Z,53.64
2018-06-10T10:39:48.182Z,53.63
2018-06-10T10:42:14.188Z,53.63
2018-06-10T10:44:40.195Z,53.63
2018-06-10T10:47:06.239Z,53.82
2018-06-10T10:49:32.248Z,53.75
2018-06-10T10:51:58.220Z,53.79
2018-06-10T10:54:24.207Z,53.87
2018-06-10T10:56:50.191Z,53.89
2018-06-10T10:59:16.169Z,54.01
2018-06-10T11:01:42.253Z,54.00
2018-06-10T11:04:08.226Z,54.23
2018-06-10T11:06:34.243Z,54.13
2018-06-10T11:09:00.364Z,54.13
2018-06-10T11:11:26.344Z,54.19
2018-06-10T11:13:52.317Z,54.09
2018-06-10T11:16:18.343Z,54.22
2018-06-10T11:18:44.321Z,54.06
2018-06-10T11:21:10.301Z,54.11
2018-06-10T11:23:36.325Z,54.22
2018-06-10T11:26:02.306Z,54.36
2018-06-10T11:28:28.287Z,54.32
2018-06-10T11:30:54.268Z,54.33
2018-06-10T11:33:20.253Z,54.39
2018-06-10T11:35:46.306Z,54.49
2018-06-10T11:38:12.295Z,54.37
2018-06-10T11:40:38.283Z,54.33
2018-06-10T11:43:04.281Z,54.27
2018-06-10T11:45:30.427Z,54.33
2018-06-10T11:47:56.415Z,54.23
2018-06-10T11:50:22.395Z,54.18
2018-06-10T11:52:48.381Z,54.18
2018-06-10T11:55:14.360Z,54.14
2018-06-10T11:57:40.379Z,54.24
2018-06-10T12:00:06.429Z,54.22
2018-06-10T12:02:32.373Z,54.46
2018-06-10T12:04:58.356Z,54.47
2018-06-10T12:07:24.368Z,54.59
2018-06-10T12:09:50.343Z,54.40
2018-06-10T12:14:42.329Z,54.38
2018-06-10T12:17:08.307Z,54.80
2018-06-10T12:19:34.291Z,54.61
2018-06-10T12:22:00.276Z,54.88
2018-06-10T12:24:26.261Z,54.93
2018-06-10T12:26:52.240Z,54.80
2018-06-10T12:29:18.346Z,54.80
2018-06-10T12:31:44.276Z,54.37
2018-06-10T12:34:10.413Z,55.27
2018-06-10T12:36:36.742Z,55.04
2018-06-10T12:39:03.442Z,54.60
2018-06-10T12:41:29.475Z,54.68
2018-06-10T12:43:55.722Z,54.76
2018-06-10T12:46:21.718Z,54.62
2018-06-10T12:48:47.712Z,54.60
2018-06-10T12:51:13.706Z,54.54
2018-06-10T12:53:39.688Z,54.46
2018-06-10T12:56:05.975Z,54.46
2018-06-10T12:58:32.878Z,54.44
2018-06-10T13:00:58.863Z,54.34
2018-06-10T13:03:24.887Z,54.31
2018-06-10T13:05:50.873Z,54.09
2018-06-10T13:08:16.866Z,53.81
2018-06-10T13:10:42.953Z,53.89
2018-06-10T13:13:09.086Z,54.18
2018-06-10T13:15:35.234Z,54.19
2018-06-10T13:18:01.305Z,54.25
2018-06-10T13:20:27.300Z,54.18
2018-06-10T13:22:53.403Z,54.50
2018-06-10T13:25:19.919Z,55.52
2018-06-10T13:27:46.484Z,55.23
2018-06-10T13:30:12.466Z,55.42
2018-06-10T13:32:38.509Z,55.78
2018-06-10T13:35:04.498Z,55.62
2018-06-10T13:37:30.483Z,55.89
2018-06-10T13:39:56.531Z,55.53
2018-06-10T13:42:22.507Z,55.79
2018-06-10T13:44:48.492Z,55.19
2018-06-10T13:47:14.481Z,54.92
2018-06-10T13:49:40.479Z,55.20
2018-06-10T13:52:06.456Z,54.95
2018-06-10T13:54:32.436Z,55.26
2018-06-10T13:56:58.419Z,55.58
2018-06-10T13:59:24.427Z,55.83
2018-06-10T14:01:50.383Z,55.14
2018-06-10T14:04:16.361Z,55.46
2018-06-10T14:06:42.406Z,55.52
2018-06-10T14:09:08.359Z,55.91
2018-06-10T14:11:34.314Z,55.58
2018-06-10T14:14:00.294Z,55.54
2018-06-10T14:16:26.279Z,55.34
2018-06-10T14:18:52.266Z,55.29
2018-06-10T14:21:18.254Z,55.36
2018-06-10T14:23:44.804Z,55.38
2018-06-10T14:26:11.644Z,55.58
2018-06-10T14:28:37.699Z,55.83
2018-06-10T14:31:03.712Z,55.73
2018-06-10T14:33:29.690Z,55.57
2018-06-10T14:35:55.753Z,55.38
2018-06-10T14:38:22.214Z,55.48
2018-06-10T14:40:48.112Z,55.40
2018-06-10T14:43:14.203Z,55.36
2018-06-10T14:45:40.134Z,55.15
2018-06-10T14:48:06.269Z,55.06
2018-06-10T14:50:32.389Z,54.92
2018-06-10T14:52:58.373Z,54.78
2018-06-10T14:55:25.237Z,54.76
2018-06-10T14:57:51.094Z,54.72
2018-06-10T15:00:17.345Z,54.76
2018-06-10T15:02:43.237Z,54.64
2018-06-10T15:05:09.500Z,54.70
2018-06-10T15:07:35.526Z,54.63
2018-06-10T15:10:01.563Z,54.34
2018-06-10T15:12:27.536Z,54.49
2018-06-10T15:14:53.789Z,54.59
2018-06-10T15:17:19.977Z,54.62
2018-06-10T15:19:45.935Z,54.36
2018-06-10T15:22:12.202Z,54.59
2018-06-10T15:24:38.324Z,54.54
2018-06-10T15:27:04.286Z,54.59
2018-06-10T15:29:30.287Z,54.58
2018-06-10T15:31:56.337Z,54.83
2018-06-10T15:34:22.366Z,54.79
2018-06-10T15:36:48.416Z,55.04
2018-06-10T15:39:14.445Z,55.00
2018-06-10T15:41:40.689Z,55.02
2018-06-10T15:44:06.662Z,54.90
2018-06-10T15:46:32.674Z,55.03
2018-06-10T15:48:58.853Z,54.99
2018-06-10T15:51:24.906Z,54.79
2018-06-10T15:53:51.407Z,54.83
2018-06-10T15:56:17.328Z,54.79
2018-06-10T15:58:43.619Z,54.83
2018-06-10T16:01:09.567Z,54.70
2018-06-10T16:03:35.591Z,54.88
2018-06-10T16:06:02.637Z,55.10
2018-06-10T16:08:28.677Z,54.88
2018-06-10T16:10:55.764Z,54.88
2018-06-10T16:13:22.908Z,54.99
2018-06-10T16:15:49.670Z,54.88
2018-06-10T16:18:16.408Z,54.64
2018-06-10T16:20:43.170Z,54.76
2018-06-10T16:23:10.309Z,54.75
2018-06-10T16:25:38.853Z,54.72
2018-06-10T16:28:04.834Z,54.62
2018-06-10T16:30:31.305Z,54.69
2018-06-10T16:32:57.732Z,54.68
2018-06-10T16:35:23.684Z,54.65
2018-06-10T16:37:50.563Z,54.60
2018-06-10T16:40:16.423Z,54.67
2018-06-10T16:42:42.703Z,54.21
2018-06-10T16:45:09.414Z,54.63
2018-06-10T16:47:35.555Z,54.63
2018-06-10T16:50:03.420Z,54.37
2018-06-10T16:52:30.154Z,54.37
2018-06-10T16:54:56.280Z,54.18
2018-06-10T16:57:22.252Z,54.20
2018-06-10T16:59:48.242Z,54.44
2018-06-10T17:02:14.229Z,54.75
2018-06-10T17:04:41.237Z,55.03
2018-06-10T17:07:08.210Z,54.81
2018-06-10T17:09:34.931Z,54.63
2018-06-10T17:12:00.839Z,54.71
2018-06-10T17:14:26.817Z,54.40
2018-06-10T17:16:52.801Z,54.54
2018-06-10T17:19:18.820Z,54.18
2018-06-10T17:21:44.869Z,54.33
2018-06-10T17:24:11.116Z,54.09
2018-06-10T17:26:37.149Z,54.17
2018-06-10T17:29:03.147Z,54.16
2018-06-10T17:31:29.126Z,54.36
2018-06-10T17:33:58.275Z,54.37
2018-06-10T17:36:24.356Z,54.62
2018-06-10T17:38:50.387Z,54.47
2018-06-10T17:41:16.630Z,54.62
2018-06-10T17:43:42.657Z,54.75
2018-06-10T17:46:08.862Z,54.34
2018-06-10T17:48:34.917Z,54.64
2018-06-10T17:51:00.918Z,54.63
2018-06-10T17:53:26.912Z,54.72
2018-06-10T17:55:52.989Z,54.64
2018-06-10T17:58:18.940Z,54.60
2018-06-10T18:00:44.980Z,54.78
2018-06-10T18:03:10.990Z,54.32
2018-06-10T18:05:36.982Z,54.73
2018-06-10T18:08:03.042Z,54.73
2018-06-10T18:10:29.023Z,54.69
2018-06-10T18:12:55.003Z,54.64
2018-06-10T18:15:20.994Z,54.62
2018-06-10T18:17:46.978Z,54.52
2018-06-10T18:20:12.956Z,54.49
2018-06-10T18:22:38.936Z,54.49
2018-06-10T18:25:04.919Z,54.65
2018-06-10T18:27:30.904Z,54.09
2018-06-10T18:29:56.895Z,54.49
2018-06-10T18:32:22.877Z,54.46
2018-06-10T18:34:48.860Z,54.60
2018-06-10T18:37:14.842Z,54.23
2018-06-10T18:39:40.831Z,54.77
2018-06-10T18:42:07.788Z,54.75
2018-06-10T18:44:33.734Z,54.85
2018-06-10T18:46:59.736Z,54.63
2018-06-10T18:49:25.738Z,55.06
2018-06-10T18:51:51.764Z,54.80
2018-06-10T18:54:17.746Z,54.93
2018-06-10T18:56:43.724Z,55.42
2018-06-10T18:59:09.721Z,55.38
2018-06-10T19:01:35.703Z,54.81
2018-06-10T19:04:01.701Z,55.21
2018-06-10T19:06:27.675Z,55.39
2018-06-10T19:08:53.672Z,55.46
2018-06-10T19:11:19.656Z,56.50
2018-06-10T19:13:45.769Z,55.16
2018-06-10T19:16:11.786Z,55.63
2018-06-10T19:18:37.862Z,55.74
2018-06-10T19:21:03.887Z,56.10
2018-06-10T19:23:29.864Z,56.03
2018-06-10T19:25:55.879Z,55.05
2018-06-10T19:28:21.883Z,55.41
2018-06-10T19:30:47.871Z,55.04
2018-06-10T19:33:13.859Z,54.87
2018-06-10T19:35:39.841Z,55.95
2018-06-10T19:38:05.825Z,54.78
2018-06-10T19:40:31.843Z,55.95
2018-06-10T19:42:57.827Z,55.53
2018-06-10T19:45:23.802Z,55.99
2018-06-10T19:47:49.787Z,55.51
2018-06-10T19:50:15.776Z,55.91
2018-06-10T19:52:41.766Z,55.56
2018-06-10T19:55:07.757Z,55.82
2018-06-10T19:57:33.750Z,55.68
2018-06-10T19:59:59.749Z,55.82
2018-06-10T20:02:25.740Z,55.77
2018-06-10T20:04:51.722Z,55.45
2018-06-10T20:07:17.717Z,56.29
2018-06-10T20:09:43.701Z,56.31
2018-06-10T20:12:09.686Z,56.49
2018-06-10T20:14:35.667Z,56.28
2018-06-10T20:17:01.659Z,56.18
2018-06-10T20:19:27.645Z,55.66
2018-06-10T20:21:53.623Z,56.39
2018-06-10T20:24:19.607Z,56.42
2018-06-10T20:26:45.591Z,56.15
2018-06-10T20:29:11.567Z,55.71
2018-06-10T20:31:37.557Z,56.12
2018-06-10T20:34:03.535Z,55.79
2018-06-10T20:36:29.521Z,56.28
2018-06-10T20:38:55.507Z,55.98
2018-06-10T20:41:21.531Z,55.82
2018-06-10T20:43:47.538Z,55.82
2018-06-10T20:46:13.519Z,56.23
2018-06-10T20:48:39.513Z,56.33
2018-06-10T20:51:05.531Z,56.18
2018-06-10T20:53:31.512Z,55.97
2018-06-10T20:55:57.496Z,55.79
2018-06-10T20:58:23.479Z,55.79
2018-06-10T21:00:49.463Z,55.85
2018-06-10T21:03:15.453Z,55.73
2018-06-10T21:05:41.466Z,56.11
2018-06-10T21:08:07.442Z,55.78
2018-06-10T21:10:33.422Z,55.75
2018-06-10T21:12:59.403Z,55.73
2018-06-10T21:15:25.383Z,55.63
2018-06-10T21:17:51.367Z,55.59
2018-06-10T21:20:17.350Z,55.66
2018-06-10T21:22:43.328Z,55.52
2018-06-10T21:25:09.310Z,55.37
2018-06-10T21:27:35.288Z,55.54
2018-06-10T21:30:01.289Z,55.64
2018-06-10T21:32:27.271Z,55.49
2018-06-10T21:34:53.262Z,55.41
2018-06-10T21:37:19.243Z,55.43
2018-06-10T21:39:45.226Z,55.41
2018-06-10T21:42:11.200Z,55.47
2018-06-10T21:44:37.238Z,55.36
2018-06-10T21:47:03.214Z,55.29
2018-06-10T21:49:29.196Z,55.21
2018-06-10T21:51:55.182Z,55.20
2018-06-10T21:54:21.165Z,55.16
2018-06-10T21:56:47.148Z,55.31
2018-06-10T21:59:13.169Z,55.12
2018-06-10T22:01:39.177Z,55.27
2018-06-10T22:04:05.157Z,55.04
2018-06-10T22:06:31.149Z,54.94
2018-06-10T22:08:57.128Z,55.00
2018-06-10T22:11:23.108Z,54.95
2018-06-10T22:13:49.097Z,54.91
2018-06-10T22:16:15.077Z,54.93
2018-06-10T22:18:41.067Z,54.94
2018-06-10T22:21:07.047Z,54.95
2018-06-10T22:23:33.075Z,54.91
2018-06-10T22:25:59.058Z,54.87
2018-06-10T22:28:25.039Z,54.85
2018-06-10T22:30:51.023Z,54.82
2018-06-10T22:33:17.014Z,54.75
2018-06-10T22:35:42.990Z,54.71
2018-06-10T22:38:09.011Z,54.69
2018-06-10T22:40:34.987Z,54.69
2018-06-10T22:43:00.990Z,54.70
2018-06-10T22:45:26.973Z,54.69
2018-06-10T22:47:52.952Z,54.58
2018-06-10T22:50:18.925Z,54.55
2018-06-10T22:52:44.950Z,54.58
2018-06-10T22:55:10.918Z,54.58
2018-06-10T22:57:36.901Z,54.51
2018-06-10T23:00:02.932Z,54.53
2018-06-10T23:02:28.906Z,54.49
2018-06-10T23:04:54.882Z,54.61
2018-06-10T23:07:20.868Z,54.48
2018-06-10T23:09:46.864Z,54.45
2018-06-10T23:12:12.847Z,54.46
2018-06-10T23:14:38.826Z,54.45
2018-06-10T23:17:04.834Z,54.44
2018-06-10T23:19:30.811Z,54.40
2018-06-10T23:21:56.816Z,54.44
2018-06-10T23:24:22.810Z,54.38
2018-06-10T23:26:48.796Z,54.37
2018-06-10T23:29:14.771Z,54.33
2018-06-10T23:31:40.767Z,54.33
2018-06-10T23:34:06.751Z,54.31
2018-06-10T23:36:32.735Z,54.35
2018-06-10T23:38:58.710Z,54.32
2018-06-10T23:41:24.714Z,54.33
2018-06-10T23:43:50.694Z,54.31
2018-06-10T23:46:16.670Z,54.28
2018-06-10T23:48:42.655Z,54.27
2018-06-10T23:51:08.631Z,54.25
2018-06-10T23:53:34.618Z,54.24
2018-06-10T23:56:00.594Z,54.22
2018-06-10T23:58:26.578Z,54.22
